Terminal Aerodrome Forecast
Issued by NWS

Home | Current Version | Previous Version | Text Only | Print | Product List | Glossary On
Versions: 1 2 3 4 5 6 7 8 9 10 11 12
000
FTAK31 PAJN 240500
TAFAPG
TAF
PAPG 240529Z 2406/2506 08004KT P6SM SCT060 BKN080
     FM241200 00000KT P6SM FEW005 OVC060
     FM241800 05003KT P6SM VCSH BKN040 OVC060
     FM242200 08005KT P6SM -SHRA OVC040
      AMD LTD TO CLD VIS AND WIND 2406/2415=

USA.gov is the U.S. government's official web portal to all federal, state and local government web resources and services.